createdAt,value
2023-04-25T00:00:03.365Z,3.68
2023-04-25T00:05:03.253Z,3.9
2023-04-25T00:10:03.039Z,3.84
2023-04-25T00:15:02.814Z,3.82
2023-04-25T00:20:02.673Z,4.03
2023-04-25T00:25:02.700Z,4.58
2023-04-25T00:30:02.468Z,4.83
2023-04-25T00:35:03.119Z,5.11
2023-04-25T00:40:02.963Z,5.15
2023-04-25T00:45:03.255Z,5.32
2023-04-25T00:50:02.667Z,5.52
2023-04-25T00:55:03.342Z,5.59
2023-04-25T01:00:02.270Z,5.86
2023-04-25T01:05:03.087Z,5.99
2023-04-25T01:10:02.915Z,5.86
2023-04-25T01:15:03.241Z,5.76
2023-04-25T01:20:02.332Z,5.6
2023-04-25T01:25:03.160Z,5.36
2023-04-25T01:30:03.517Z,5.24
2023-04-25T01:35:02.553Z,5.04
2023-04-25T01:40:02.436Z,4.93
2023-04-25T01:45:03.352Z,4.71
2023-04-25T01:50:02.951Z,4.44
2023-04-25T01:55:03.227Z,4.49
2023-04-25T02:00:02.516Z,4.35
2023-04-25T02:05:02.227Z,4.52
2023-04-25T02:10:02.305Z,4.43
2023-04-25T02:15:03.417Z,4.03
2023-04-25T02:20:03.191Z,4.1
2023-04-25T02:25:02.889Z,4.03
2023-04-25T02:30:02.793Z,4.14
2023-04-25T02:35:02.488Z,4.01
2023-04-25T02:40:02.194Z,4.18
2023-04-25T02:45:03.015Z,4.19
2023-04-25T02:50:02.678Z,4.32
2023-04-25T02:55:03.515Z,4.45
2023-04-25T03:00:03.209Z,4.5
2023-04-25T03:05:02.896Z,4.5
2023-04-25T03:10:02.598Z,4.85
2023-04-25T03:15:02.395Z,4.72
2023-04-25T03:20:02.307Z,4.58
2023-04-25T03:25:02.993Z,4.46
2023-04-25T03:30:02.991Z,4.4
2023-04-25T03:35:02.664Z,4.23
2023-04-25T03:40:02.355Z,4.09
2023-04-25T03:45:03.251Z,4.14
2023-04-25T03:50:02.919Z,4.22
2023-04-25T03:55:03.892Z,4.22
2023-04-25T04:00:02.593Z,4.43
2023-04-25T04:05:02.536Z,4.36
2023-04-25T04:10:02.205Z,4.31
2023-04-25T04:15:02.979Z,4.15
2023-04-25T04:20:02.721Z,3.98
2023-04-25T04:25:02.685Z,3.87
2023-04-25T04:30:03.097Z,3.75
2023-04-25T04:35:02.870Z,4.13
2023-04-25T04:40:02.438Z,4.2
2023-04-25T04:45:02.281Z,4.87
2023-04-25T04:50:03.171Z,5.4
2023-04-25T04:55:03.979Z,5.79
2023-04-25T05:00:02.703Z,5.4
2023-04-25T05:05:02.562Z,5.23
2023-04-25T05:10:02.505Z,5.3
2023-04-25T05:15:02.482Z,5.27
2023-04-25T05:20:02.202Z,5.12
2023-04-25T05:25:02.980Z,4.89
2023-04-25T05:30:02.691Z,5.75
2023-04-25T05:35:02.714Z,5.85
2023-04-25T05:40:03.036Z,6.12
2023-04-25T05:45:02.965Z,6.36
2023-04-25T05:50:02.725Z,6.72
2023-04-25T05:55:03.583Z,6.84
2023-04-25T06:00:02.327Z,7.05
2023-04-25T06:05:02.832Z,7.43
2023-04-25T06:10:03.126Z,7.68
2023-04-25T06:15:04.796Z,7.9
2023-04-25T06:20:02.978Z,7.29
2023-04-25T06:25:02.496Z,7.48
2023-04-25T06:30:02.302Z,7.51
2023-04-25T06:35:02.931Z,7.55
2023-04-25T06:40:02.664Z,7.86
2023-04-25T06:45:02.431Z,8.05
2023-04-25T06:50:03.093Z,8.24
2023-04-25T06:55:03.923Z,7.73
2023-04-25T07:00:03.007Z,8.33
2023-04-25T07:05:02.324Z,7.79
2023-04-25T07:10:03.203Z,7.59
2023-04-25T07:15:02.838Z,7.61
2023-04-25T07:20:02.694Z,8.54
2023-04-25T07:25:02.415Z,7.86
2023-04-25T07:30:02.282Z,7.91
2023-04-25T07:35:03.100Z,7.38
2023-04-25T07:40:02.840Z,7.42
2023-04-25T07:45:02.814Z,7.31
2023-04-25T07:50:02.435Z,7.5
2023-04-25T07:55:03.130Z,7.97
2023-04-25T08:00:02.983Z,7.74
2023-04-25T08:05:03.213Z,7.51
2023-04-25T08:10:02.829Z,7.43
2023-04-25T08:15:02.528Z,7.28
2023-04-25T08:20:02.313Z,7.33
2023-04-25T08:25:03.404Z,7.47
2023-04-25T08:30:02.757Z,7.43
2023-04-25T08:35:02.509Z,7.63
2023-04-25T08:40:02.202Z,8.16
2023-04-25T08:45:07.688Z,8.18
2023-04-25T08:50:02.909Z,9.01
2023-04-25T08:55:03.672Z,9.71
2023-04-25T09:00:02.463Z,8.86
2023-04-25T09:05:03.170Z,8.43
2023-04-25T09:10:02.826Z,8.94
2023-04-25T09:15:02.612Z,8.8
2023-04-25T09:20:02.503Z,9.02
2023-04-25T09:25:03.367Z,8.97
2023-04-25T09:30:02.853Z,9.15
2023-04-25T09:35:02.602Z,9
2023-04-25T09:40:02.423Z,8.48
2023-04-25T09:45:03.115Z,8.89
2023-04-25T09:50:03.144Z,8.81
2023-04-25T09:55:04.116Z,8.33
2023-04-25T10:00:02.761Z,7.96
2023-04-25T10:05:02.997Z,7.99
2023-04-25T10:10:02.780Z,7.94
2023-04-25T10:15:02.634Z,7.99
2023-04-25T10:20:02.540Z,8.7
2023-04-25T10:25:02.323Z,9.01
2023-04-25T10:30:03.039Z,9.01
2023-04-25T10:35:02.704Z,8.81
2023-04-25T10:40:02.547Z,8.51
2023-04-25T10:45:02.309Z,9.21
2023-04-25T10:50:02.633Z,9.63
2023-04-25T10:55:03.714Z,9.56
2023-04-25T11:00:02.291Z,9.3
2023-04-25T11:05:03.038Z,8.62
2023-04-25T11:10:02.790Z,8.31
2023-04-25T11:15:02.510Z,8.64
2023-04-25T11:20:02.453Z,8.7
2023-04-25T11:25:03.096Z,8.65
2023-04-25T11:30:02.848Z,9.12
2023-04-25T11:35:02.567Z,8.51
2023-04-25T11:40:02.642Z,7.9
2023-04-25T11:45:02.724Z,8.21
2023-04-25T11:50:02.326Z,8.1
2023-04-25T11:55:03.374Z,8.8
2023-04-25T12:00:03.198Z,9.2
2023-04-25T12:05:12.029Z,8.99
2023-04-25T12:10:03.144Z,9.15
2023-04-25T12:15:02.767Z,8.64
2023-04-25T12:20:02.773Z,8.48
2023-04-25T12:25:02.508Z,8.28
2023-04-25T12:30:02.511Z,8.86
2023-04-25T12:35:03.176Z,9.26
2023-04-25T12:40:03.059Z,9.45
2023-04-25T12:45:02.274Z,9.91
2023-04-25T12:50:03.116Z,9.93
2023-04-25T12:55:03.699Z,9.82
2023-04-25T13:00:02.496Z,10.27
2023-04-25T13:05:02.258Z,11.3
2023-04-25T13:10:02.942Z,11.79
2023-04-25T13:15:02.841Z,10.06
2023-04-25T13:20:02.473Z,9.53
2023-04-25T13:25:02.170Z,9.24
2023-04-25T13:30:03.094Z,8.82
2023-04-25T13:35:05.385Z,8.75
2023-04-25T13:40:02.608Z,10.56
2023-04-25T13:45:02.518Z,11.3
2023-04-25T13:50:02.544Z,11.82
2023-04-25T13:55:02.768Z,11.6
2023-04-25T14:00:03.193Z,10.97
2023-04-25T14:05:03.234Z,11.08
2023-04-25T14:10:03.361Z,9.47
2023-04-25T14:15:02.986Z,9.62
2023-04-25T14:20:02.651Z,9.67
2023-04-25T14:25:02.334Z,9.29
2023-04-25T14:30:02.367Z,9.24
2023-04-25T14:35:03.098Z,9.57
2023-04-25T14:40:02.210Z,9.45
2023-04-25T14:45:02.973Z,9.04
2023-04-25T14:50:02.959Z,9.17
2023-04-25T14:55:03.297Z,9.07
2023-04-25T15:00:03.031Z,8.99
2023-04-25T15:05:03.196Z,8.72
2023-04-25T15:10:02.905Z,8.75
2023-04-25T15:15:02.711Z,10.05
2023-04-25T15:20:02.391Z,9.5
2023-04-25T15:25:03.165Z,8.81
2023-04-25T15:30:02.975Z,8.86
2023-04-25T15:35:03.152Z,8.93
2023-04-25T15:40:02.429Z,8.78
2023-04-25T15:45:02.256Z,8.57
2023-04-25T15:50:02.206Z,8.65
2023-04-25T15:55:03.482Z,8.56
2023-04-25T16:00:03.138Z,8.45
2023-04-25T16:05:02.916Z,8.38
2023-04-25T16:10:02.603Z,8.32
2023-04-25T16:15:03.204Z,8.33
2023-04-25T16:20:02.857Z,8.53
2023-04-25T16:25:02.628Z,8.92
2023-04-25T16:30:02.469Z,9.4
2023-04-25T16:35:03.037Z,10.04
2023-04-25T16:40:03.160Z,8.8
2023-04-25T16:45:02.853Z,8.33
2023-04-25T16:50:02.498Z,7.92
2023-04-25T16:55:04.288Z,7.8
2023-04-25T17:00:03.113Z,7.88
2023-04-25T17:05:03.001Z,7.87
2023-04-25T17:10:02.738Z,7.69
2023-04-25T17:15:02.454Z,7.58
2023-04-25T17:20:02.416Z,7.44
2023-04-25T17:25:03.086Z,7.61
2023-04-25T17:30:03.182Z,7.56
2023-04-25T17:35:03.059Z,7.36
2023-04-25T17:40:02.837Z,7.25
2023-04-25T17:45:02.575Z,7.22
2023-04-25T17:50:02.371Z,7.21
2023-04-25T17:55:02.956Z,7.29
2023-04-25T18:00:05.224Z,7.37
2023-04-25T18:05:02.975Z,7.51
2023-04-25T18:10:03.097Z,7.46
2023-04-25T18:15:03.049Z,7.17
2023-04-25T18:20:02.712Z,7.09
2023-04-25T18:25:02.416Z,6.81
2023-04-25T18:30:03.229Z,6.64
2023-04-25T18:35:02.852Z,6.71
2023-04-25T18:40:02.629Z,6.67
2023-04-25T18:45:02.357Z,7.25
2023-04-25T18:50:03.294Z,6.62
2023-04-25T18:55:03.768Z,6.62
2023-04-25T19:00:02.595Z,6.53
2023-04-25T19:05:02.655Z,6.26
2023-04-25T19:10:02.432Z,6
2023-04-25T19:15:02.215Z,6.03
2023-04-25T19:20:02.984Z,5.67
2023-04-25T19:25:10.224Z,5.77
2023-04-25T19:30:02.221Z,5.5
2023-04-25T19:35:02.259Z,5.24
2023-04-25T19:40:02.932Z,4.8
2023-04-25T19:45:02.737Z,4.9
2023-04-25T19:50:02.647Z,4.76
2023-04-25T19:55:03.663Z,4.44
2023-04-25T20:00:02.555Z,4.41
2023-04-25T20:05:02.401Z,4.64
2023-04-25T20:10:03.071Z,4.77
2023-04-25T20:15:02.345Z,4.52
2023-04-25T20:20:03.136Z,4.59
2023-04-25T20:25:02.889Z,4.14
2023-04-25T20:30:02.862Z,3.54
2023-04-25T20:35:02.596Z,3.08
2023-04-25T20:40:02.515Z,3.05
2023-04-25T20:45:02.278Z,3.23
2023-04-25T20:50:02.910Z,3.49
2023-04-25T20:55:03.494Z,3.88
2023-04-25T21:00:02.743Z,4.09
2023-04-25T21:05:02.578Z,4.07
2023-04-25T21:10:02.840Z,4.29
2023-04-25T21:15:02.442Z,4.38
2023-04-25T21:20:02.512Z,4.58
2023-04-25T21:25:03.183Z,4.6
2023-04-25T21:30:02.388Z,4.43
2023-04-25T21:35:03.099Z,4.4
2023-04-25T21:40:02.998Z,4.18
2023-04-25T21:45:02.810Z,4.33
2023-04-25T21:50:02.410Z,4.05
2023-04-25T21:55:03.896Z,3.74
2023-04-25T22:00:02.200Z,3.79
2023-04-25T22:05:03.049Z,3.91
2023-04-25T22:10:02.744Z,3.69
2023-04-25T22:15:02.453Z,3.45
2023-04-25T22:20:03.140Z,3.4
2023-04-25T22:25:02.819Z,3.51
2023-04-25T22:30:02.274Z,3.51
2023-04-25T22:35:02.925Z,3.29
2023-04-25T22:40:02.595Z,3.35
2023-04-25T22:45:02.402Z,3.23
2023-04-25T22:50:03.172Z,3.23
2023-04-25T22:55:03.888Z,3.47
2023-04-25T23:00:02.961Z,2.95
2023-04-25T23:05:02.631Z,3.17
2023-04-25T23:10:02.577Z,2.79
2023-04-25T23:15:02.335Z,2.67
2023-04-25T23:20:02.596Z,2.32
2023-04-25T23:25:02.709Z,2.07
2023-04-25T23:30:02.312Z,1.97
2023-04-25T23:35:03.117Z,2.02
2023-04-25T23:40:02.976Z,1.97
2023-04-25T23:45:02.698Z,1.6
2023-04-25T23:50:02.418Z,1.85
2023-04-25T23:55:03.435Z,1.51
